Terminal Aerodrome Forecast
Issued by NWS Twin Cities, MN

Home | Current Version | Previous Version | Graphics & Text | Print | Product List | Glossary On
Versions: 1 2 3 4 5 6 7 8 9 10 11 12
000
FTUS43 KMPX 251720
TAFSTC
TAF
KSTC 251720Z 2518/2618 09010G17KT P6SM FEW040 BKN090
     FM260100 07005KT P6SM FEW080
     FM260300 06003KT P6SM SKC
     FM261500 07006KT P6SM SKC=

USA.gov is the U.S. government's official web portal to all federal, state and local government web resources and services.